Kenova, WV (25530)

11:26 PM EST on March 01, 2015 (GMT -0500)
Westmoreland | Change Station
CLOSE
Current Station
Personal Weather Station
Location: Huntington, WV
Elevation: 548 ft
Nearby Weather Stations

Elev 548 ft 38.40 °N, 82.52 °W | Updated 6 seconds ago

Light Rain
Light Rain Mist
39.1 °F
Feels Like 39 °F
N
2.0
Wind Variable Wind from West
Gusts 4.0 mph

Today
High -- | Low -- °F
--% Chance of Precip.
Yesterday
High -- | Low -- °F
Precip. -- in
7:02 AM 6:23 PM
Waxing Gibbous, 89% visible
Pressure 30.26 in
Visibility 3.0 miles
Clouds Mostly Cloudy 200 ft
Overcast 600 ft
Windchill 39 °F
Dew Point 39 °F
Humidity 100%
Rainfall 0.00 in
Snow Depth Not available.
UV 0.0 out of 12
Pollen .30 out of 12
Air Quality Not available.
Flu Activity Not available.
SPECI KHTS 020413Z 31005KT 3SM -RA BR BKN002 OVC006 03/03 A3026 RMK AO2 P0000 T00330033

More Conditions Fewer Conditions

Pressure 30.26 in
Visibility 3.0 miles
Clouds Mostly Cloudy 200 ft
Overcast 600 ft
Windchill 39 °F
Dew Point 39 °F
Humidity 100%
Rainfall 0.00 in
Snow Depth Not available.
UV 0.0 out of 12
Pollen .30 out of 12
Air Quality Not available.
Flu Activity Not available.
SPECI KHTS 020413Z 31005KT 3SM -RA BR BKN002 OVC006 03/03 A3026 RMK AO2 P0000 T00330033

More Conditions Fewer Conditions

10-Day Weather Forecast

Almanac

Astronomy

Mar. 01, 2015 Rise Set
Actual Time
Civil Twilight
Nautical Twilight
Astronomical Twilight
Moon
Length of Visible Light
Length of Day
Tomorrow will be .
, % of the Moon is Illuminated

Today's Extremes

State Highs State Lows

Community

WunderPhotos

Upload Photos

1,801,724 photos uploaded!

WunderBlogs® & News

Nearby

Air Quality

  Air Quality AQ Index Pollutant
Not available.

Snow Depth

Station Depth Elevation

Earthquake Activity

City Distance Mag. Time & Date
Minimum magnitude displayed is 2.5.

Coastal Water Temperatures

Place Temperature

Nearby Weather Stations